sensor_id;sensor_type;location;lat;lon;timestamp;P1;durP1;ratioP1;P2;durP2;ratioP2
73729;SDS011;62036;48.128;16.458;2022-11-15T00:01:40;58.70;;;19.40;;
73729;SDS011;62036;48.128;16.458;2022-11-15T00:04:06;57.20;;;18.65;;
73729;SDS011;62036;48.128;16.458;2022-11-15T00:06:32;58.95;;;19.55;;
73729;SDS011;62036;48.128;16.458;2022-11-15T00:08:58;60.47;;;18.42;;
73729;SDS011;62036;48.128;16.458;2022-11-15T00:11:25;63.83;;;19.35;;
73729;SDS011;62036;48.128;16.458;2022-11-15T00:13:51;50.13;;;17.95;;
73729;SDS011;62036;48.128;16.458;2022-11-15T00:16:17;61.80;;;17.85;;
73729;SDS011;62036;48.128;16.458;2022-11-15T00:18:43;55.67;;;18.45;;
73729;SDS011;62036;48.128;16.458;2022-11-15T00:21:10;53.22;;;18.10;;
73729;SDS011;62036;48.128;16.458;2022-11-15T00:23:36;57.55;;;19.02;;
73729;SDS011;62036;48.128;16.458;2022-11-15T00:26:03;56.88;;;17.80;;
73729;SDS011;62036;48.128;16.458;2022-11-15T00:28:29;58.80;;;19.40;;
73729;SDS011;62036;48.128;16.458;2022-11-15T00:31:02;66.90;;;20.75;;
73729;SDS011;62036;48.128;16.458;2022-11-15T00:33:29;52.50;;;17.67;;
73729;SDS011;62036;48.128;16.458;2022-11-15T00:36:02;56.45;;;18.40;;
73729;SDS011;62036;48.128;16.458;2022-11-15T00:38:32;56.20;;;19.73;;
73729;SDS011;62036;48.128;16.458;2022-11-15T00:40:59;49.58;;;18.65;;
73729;SDS011;62036;48.128;16.458;2022-11-15T00:43:25;53.95;;;17.27;;
73729;SDS011;62036;48.128;16.458;2022-11-15T00:45:51;57.72;;;18.08;;
73729;SDS011;62036;48.128;16.458;2022-11-15T00:48:17;54.00;;;17.67;;
73729;SDS011;62036;48.128;16.458;2022-11-15T00:50:43;49.97;;;17.15;;
73729;SDS011;62036;48.128;16.458;2022-11-15T00:53:09;53.55;;;17.70;;
73729;SDS011;62036;48.128;16.458;2022-11-15T00:55:36;49.75;;;18.63;;
73729;SDS011;62036;48.128;16.458;2022-11-15T00:58:02;58.60;;;19.00;;
73729;SDS011;62036;48.128;16.458;2022-11-15T01:00:28;50.67;;;16.17;;
73729;SDS011;62036;48.128;16.458;2022-11-15T01:02:54;54.30;;;18.02;;
73729;SDS011;62036;48.128;16.458;2022-11-15T01:05:20;48.30;;;17.23;;
73729;SDS011;62036;48.128;16.458;2022-11-15T01:07:46;53.92;;;17.05;;
73729;SDS011;62036;48.128;16.458;2022-11-15T01:10:12;55.90;;;17.88;;
73729;SDS011;62036;48.128;16.458;2022-11-15T01:12:38;54.55;;;17.27;;
73729;SDS011;62036;48.128;16.458;2022-11-15T01:15:04;48.60;;;16.55;;
73729;SDS011;62036;48.128;16.458;2022-11-15T01:17:31;46.05;;;16.85;;
73729;SDS011;62036;48.128;16.458;2022-11-15T01:19:57;55.30;;;18.70;;
73729;SDS011;62036;48.128;16.458;2022-11-15T01:22:23;57.03;;;18.35;;
73729;SDS011;62036;48.128;16.458;2022-11-15T01:24:49;57.88;;;18.52;;
73729;SDS011;62036;48.128;16.458;2022-11-15T01:27:16;54.95;;;18.63;;
73729;SDS011;62036;48.128;16.458;2022-11-15T01:29:42;52.70;;;18.40;;
73729;SDS011;62036;48.128;16.458;2022-11-15T01:32:08;53.80;;;18.67;;
73729;SDS011;62036;48.128;16.458;2022-11-15T01:34:34;49.00;;;17.05;;
73729;SDS011;62036;48.128;16.458;2022-11-15T01:37:00;47.00;;;16.90;;
73729;SDS011;62036;48.128;16.458;2022-11-15T01:39:26;52.10;;;18.15;;
73729;SDS011;62036;48.128;16.458;2022-11-15T01:41:52;52.33;;;17.98;;
73729;SDS011;62036;48.128;16.458;2022-11-15T01:46:54;42.90;;;16.35;;
73729;SDS011;62036;48.128;16.458;2022-11-15T01:49:21;50.80;;;17.00;;
73729;SDS011;62036;48.128;16.458;2022-11-15T01:51:47;48.72;;;15.15;;
73729;SDS011;62036;48.128;16.458;2022-11-15T01:54:14;45.70;;;16.38;;
73729;SDS011;62036;48.128;16.458;2022-11-15T01:56:45;51.15;;;17.80;;
73729;SDS011;62036;48.128;16.458;2022-11-15T01:59:12;48.72;;;17.92;;
73729;SDS011;62036;48.128;16.458;2022-11-15T02:01:38;55.88;;;17.92;;
73729;SDS011;62036;48.128;16.458;2022-11-15T02:04:10;51.08;;;18.08;;
73729;SDS011;62036;48.128;16.458;2022-11-15T02:06:37;52.58;;;17.75;;
73729;SDS011;62036;48.128;16.458;2022-11-15T02:09:03;54.08;;;18.75;;
73729;SDS011;62036;48.128;16.458;2022-11-15T02:11:30;60.25;;;18.23;;
73729;SDS011;62036;48.128;16.458;2022-11-15T02:13:56;52.20;;;18.88;;
73729;SDS011;62036;48.128;16.458;2022-11-15T02:18:54;53.80;;;19.23;;
73729;SDS011;62036;48.128;16.458;2022-11-15T02:24:03;55.28;;;17.55;;
73729;SDS011;62036;48.128;16.458;2022-11-15T02:32:03;47.85;;;17.13;;
73729;SDS011;62036;48.128;16.458;2022-11-15T02:39:59;50.08;;;16.63;;
73729;SDS011;62036;48.128;16.458;2022-11-15T02:42:30;50.40;;;17.38;;
73729;SDS011;62036;48.128;16.458;2022-11-15T02:45:17;61.00;;;19.25;;
73729;SDS011;62036;48.128;16.458;2022-11-15T02:47:45;47.13;;;17.08;;
73729;SDS011;62036;48.128;16.458;2022-11-15T02:50:13;52.80;;;16.95;;
73729;SDS011;62036;48.128;16.458;2022-11-15T02:52:43;54.53;;;18.33;;
73729;SDS011;62036;48.128;16.458;2022-11-15T02:58:04;63.08;;;17.73;;
73729;SDS011;62036;48.128;16.458;2022-11-15T03:00:34;61.28;;;19.63;;
73729;SDS011;62036;48.128;16.458;2022-11-15T03:05:59;48.70;;;16.67;;
73729;SDS011;62036;48.128;16.458;2022-11-15T03:08:40;50.90;;;17.38;;
73729;SDS011;62036;48.128;16.458;2022-11-15T03:11:11;52.92;;;17.33;;
73729;SDS011;62036;48.128;16.458;2022-11-15T03:13:58;55.13;;;17.95;;
73729;SDS011;62036;48.128;16.458;2022-11-15T03:16:36;51.28;;;17.60;;
73729;SDS011;62036;48.128;16.458;2022-11-15T03:19:04;56.45;;;18.48;;
73729;SDS011;62036;48.128;16.458;2022-11-15T03:21:32;53.90;;;18.27;;
73729;SDS011;62036;48.128;16.458;2022-11-15T03:24:00;58.95;;;17.33;;
73729;SDS011;62036;48.128;16.458;2022-11-15T03:26:28;51.58;;;18.08;;
73729;SDS011;62036;48.128;16.458;2022-11-15T03:28:56;58.75;;;17.88;;
73729;SDS011;62036;48.128;16.458;2022-11-15T03:31:23;52.60;;;18.10;;
73729;SDS011;62036;48.128;16.458;2022-11-15T03:34:10;51.50;;;18.27;;
73729;SDS011;62036;48.128;16.458;2022-11-15T03:36:40;54.17;;;17.40;;
73729;SDS011;62036;48.128;16.458;2022-11-15T03:39:06;53.97;;;16.50;;
73729;SDS011;62036;48.128;16.458;2022-11-15T03:41:43;60.88;;;19.88;;
73729;SDS011;62036;48.128;16.458;2022-11-15T03:44:16;55.63;;;16.73;;
73729;SDS011;62036;48.128;16.458;2022-11-15T03:49:31;60.78;;;18.65;;
73729;SDS011;62036;48.128;16.458;2022-11-15T03:51:59;58.63;;;18.75;;
73729;SDS011;62036;48.128;16.458;2022-11-15T03:54:25;54.03;;;18.35;;
73729;SDS011;62036;48.128;16.458;2022-11-15T03:56:51;57.40;;;19.00;;
73729;SDS011;62036;48.128;16.458;2022-11-15T03:59:18;58.53;;;19.50;;
73729;SDS011;62036;48.128;16.458;2022-11-15T04:01:44;50.38;;;16.80;;
73729;SDS011;62036;48.128;16.458;2022-11-15T04:04:10;49.78;;;18.23;;
73729;SDS011;62036;48.128;16.458;2022-11-15T04:06:36;61.00;;;20.70;;
73729;SDS011;62036;48.128;16.458;2022-11-15T04:09:02;58.15;;;19.10;;
73729;SDS011;62036;48.128;16.458;2022-11-15T04:11:28;62.75;;;18.67;;
73729;SDS011;62036;48.128;16.458;2022-11-15T04:13:54;55.85;;;16.88;;
73729;SDS011;62036;48.128;16.458;2022-11-15T04:16:20;50.50;;;18.77;;
73729;SDS011;62036;48.128;16.458;2022-11-15T04:18:46;54.90;;;17.88;;
73729;SDS011;62036;48.128;16.458;2022-11-15T04:21:35;49.20;;;16.60;;
73729;SDS011;62036;48.128;16.458;2022-11-15T04:24:19;54.33;;;17.73;;
73729;SDS011;62036;48.128;16.458;2022-11-15T04:26:45;51.78;;;16.42;;
73729;SDS011;62036;48.128;16.458;2022-11-15T04:29:11;61.35;;;19.25;;
73729;SDS011;62036;48.128;16.458;2022-11-15T04:31:56;47.70;;;15.68;;
73729;SDS011;62036;48.128;16.458;2022-11-15T04:34:22;58.22;;;17.10;;
73729;SDS011;62036;48.128;16.458;2022-11-15T04:36:48;55.72;;;19.48;;
73729;SDS011;62036;48.128;16.458;2022-11-15T04:39:33;58.40;;;19.52;;
73729;SDS011;62036;48.128;16.458;2022-11-15T04:41:59;59.30;;;19.65;;
73729;SDS011;62036;48.128;16.458;2022-11-15T04:44:25;65.60;;;21.05;;
73729;SDS011;62036;48.128;16.458;2022-11-15T04:46:51;67.07;;;20.35;;
73729;SDS011;62036;48.128;16.458;2022-11-15T04:49:17;59.95;;;20.58;;
73729;SDS011;62036;48.128;16.458;2022-11-15T04:51:43;55.30;;;17.85;;
73729;SDS011;62036;48.128;16.458;2022-11-15T04:54:09;56.42;;;18.55;;
73729;SDS011;62036;48.128;16.458;2022-11-15T04:56:35;60.35;;;18.52;;
73729;SDS011;62036;48.128;16.458;2022-11-15T04:59:01;64.65;;;20.13;;
73729;SDS011;62036;48.128;16.458;2022-11-15T05:01:27;55.75;;;18.88;;
73729;SDS011;62036;48.128;16.458;2022-11-15T05:03:53;62.40;;;20.17;;
73729;SDS011;62036;48.128;16.458;2022-11-15T05:06:38;65.43;;;19.23;;
73729;SDS011;62036;48.128;16.458;2022-11-15T05:09:04;66.28;;;20.25;;
73729;SDS011;62036;48.128;16.458;2022-11-15T05:11:30;57.25;;;18.58;;
73729;SDS011;62036;48.128;16.458;2022-11-15T05:13:56;63.75;;;20.48;;
73729;SDS011;62036;48.128;16.458;2022-11-15T05:16:22;60.67;;;19.67;;
73729;SDS011;62036;48.128;16.458;2022-11-15T05:18:52;71.60;;;21.05;;
73729;SDS011;62036;48.128;16.458;2022-11-15T05:21:19;66.07;;;19.08;;
73729;SDS011;62036;48.128;16.458;2022-11-15T05:23:45;60.22;;;18.40;;
73729;SDS011;62036;48.128;16.458;2022-11-15T05:26:12;65.20;;;18.13;;
73729;SDS011;62036;48.128;16.458;2022-11-15T05:28:38;65.05;;;20.58;;
73729;SDS011;62036;48.128;16.458;2022-11-15T05:31:05;63.75;;;19.58;;
73729;SDS011;62036;48.128;16.458;2022-11-15T05:33:32;57.92;;;19.15;;
73729;SDS011;62036;48.128;16.458;2022-11-15T05:36:00;62.80;;;19.65;;
73729;SDS011;62036;48.128;16.458;2022-11-15T05:38:27;58.25;;;19.10;;
73729;SDS011;62036;48.128;16.458;2022-11-15T05:40:54;64.30;;;19.92;;
73729;SDS011;62036;48.128;16.458;2022-11-15T05:43:20;61.25;;;18.77;;
73729;SDS011;62036;48.128;16.458;2022-11-15T05:45:46;65.45;;;22.17;;
73729;SDS011;62036;48.128;16.458;2022-11-15T05:48:12;59.60;;;19.42;;
73729;SDS011;62036;48.128;16.458;2022-11-15T05:50:39;66.05;;;20.60;;
73729;SDS011;62036;48.128;16.458;2022-11-15T05:53:07;60.20;;;19.48;;
73729;SDS011;62036;48.128;16.458;2022-11-15T05:55:33;66.22;;;21.08;;
73729;SDS011;62036;48.128;16.458;2022-11-15T05:57:59;67.20;;;21.42;;
73729;SDS011;62036;48.128;16.458;2022-11-15T06:00:27;65.35;;;21.58;;
73729;SDS011;62036;48.128;16.458;2022-11-15T06:02:54;58.80;;;18.35;;
73729;SDS011;62036;48.128;16.458;2022-11-15T06:05:20;63.90;;;20.27;;
73729;SDS011;62036;48.128;16.458;2022-11-15T06:07:46;53.58;;;16.95;;
73729;SDS011;62036;48.128;16.458;2022-11-15T06:10:12;60.15;;;19.27;;
73729;SDS011;62036;48.128;16.458;2022-11-15T06:12:38;61.50;;;19.75;;
73729;SDS011;62036;48.128;16.458;2022-11-15T06:15:04;54.63;;;19.48;;
73729;SDS011;62036;48.128;16.458;2022-11-15T06:17:30;55.20;;;17.17;;
73729;SDS011;62036;48.128;16.458;2022-11-15T06:19:56;56.97;;;17.20;;
73729;SDS011;62036;48.128;16.458;2022-11-15T06:22:22;60.08;;;19.15;;
73729;SDS011;62036;48.128;16.458;2022-11-15T06:24:48;64.65;;;19.10;;
73729;SDS011;62036;48.128;16.458;2022-11-15T06:27:14;55.05;;;17.52;;
73729;SDS011;62036;48.128;16.458;2022-11-15T06:29:41;56.85;;;17.88;;
73729;SDS011;62036;48.128;16.458;2022-11-15T06:32:07;52.10;;;17.10;;
73729;SDS011;62036;48.128;16.458;2022-11-15T06:34:33;53.42;;;16.88;;
73729;SDS011;62036;48.128;16.458;2022-11-15T06:37:00;53.25;;;18.08;;
73729;SDS011;62036;48.128;16.458;2022-11-15T06:39:26;53.78;;;17.55;;
73729;SDS011;62036;48.128;16.458;2022-11-15T06:41:52;56.17;;;18.58;;
73729;SDS011;62036;48.128;16.458;2022-11-15T06:44:18;51.03;;;18.05;;
73729;SDS011;62036;48.128;16.458;2022-11-15T06:46:44;48.00;;;17.70;;
73729;SDS011;62036;48.128;16.458;2022-11-15T06:49:10;47.45;;;18.02;;
73729;SDS011;62036;48.128;16.458;2022-11-15T06:51:37;47.72;;;16.65;;
73729;SDS011;62036;48.128;16.458;2022-11-15T06:54:03;51.13;;;18.45;;
73729;SDS011;62036;48.128;16.458;2022-11-15T06:56:29;50.75;;;19.08;;
73729;SDS011;62036;48.128;16.458;2022-11-15T06:58:55;56.17;;;19.38;;
73729;SDS011;62036;48.128;16.458;2022-11-15T07:01:21;49.85;;;18.67;;
73729;SDS011;62036;48.128;16.458;2022-11-15T07:03:47;52.33;;;18.33;;
73729;SDS011;62036;48.128;16.458;2022-11-15T07:06:13;46.97;;;17.45;;
73729;SDS011;62036;48.128;16.458;2022-11-15T07:08:39;50.03;;;18.73;;
73729;SDS011;62036;48.128;16.458;2022-11-15T07:11:07;52.00;;;19.20;;
73729;SDS011;62036;48.128;16.458;2022-11-15T07:13:33;50.95;;;18.67;;
73729;SDS011;62036;48.128;16.458;2022-11-15T07:16:04;48.17;;;16.13;;
73729;SDS011;62036;48.128;16.458;2022-11-15T07:18:30;53.58;;;17.10;;
73729;SDS011;62036;48.128;16.458;2022-11-15T07:21:00;49.50;;;16.60;;
73729;SDS011;62036;48.128;16.458;2022-11-15T07:23:26;56.58;;;17.83;;
73729;SDS011;62036;48.128;16.458;2022-11-15T07:25:52;49.05;;;18.23;;
73729;SDS011;62036;48.128;16.458;2022-11-15T07:28:18;51.65;;;17.65;;
73729;SDS011;62036;48.128;16.458;2022-11-15T07:30:44;59.80;;;20.60;;
73729;SDS011;62036;48.128;16.458;2022-11-15T07:33:10;63.28;;;20.10;;
73729;SDS011;62036;48.128;16.458;2022-11-15T07:35:36;53.15;;;20.02;;
73729;SDS011;62036;48.128;16.458;2022-11-15T07:38:02;59.13;;;19.17;;
73729;SDS011;62036;48.128;16.458;2022-11-15T07:40:29;69.32;;;21.30;;
73729;SDS011;62036;48.128;16.458;2022-11-15T07:42:59;56.47;;;19.52;;
73729;SDS011;62036;48.128;16.458;2022-11-15T07:45:25;58.40;;;20.85;;
73729;SDS011;62036;48.128;16.458;2022-11-15T07:47:51;55.78;;;19.67;;
73729;SDS011;62036;48.128;16.458;2022-11-15T07:50:18;59.83;;;20.58;;
73729;SDS011;62036;48.128;16.458;2022-11-15T07:52:44;54.13;;;19.38;;
73729;SDS011;62036;48.128;16.458;2022-11-15T07:55:10;65.65;;;21.80;;
73729;SDS011;62036;48.128;16.458;2022-11-15T07:57:36;53.40;;;19.33;;
73729;SDS011;62036;48.128;16.458;2022-11-15T08:00:05;60.85;;;20.70;;
73729;SDS011;62036;48.128;16.458;2022-11-15T08:02:32;55.90;;;19.38;;
73729;SDS011;62036;48.128;16.458;2022-11-15T08:04:58;52.28;;;19.67;;
73729;SDS011;62036;48.128;16.458;2022-11-15T08:07:24;56.17;;;19.80;;
73729;SDS011;62036;48.128;16.458;2022-11-15T08:09:50;59.38;;;20.45;;
73729;SDS011;62036;48.128;16.458;2022-11-15T08:12:16;55.85;;;18.77;;
73729;SDS011;62036;48.128;16.458;2022-11-15T08:14:42;52.20;;;18.98;;
73729;SDS011;62036;48.128;16.458;2022-11-15T08:17:08;52.60;;;18.00;;
73729;SDS011;62036;48.128;16.458;2022-11-15T08:19:34;52.03;;;18.90;;
73729;SDS011;62036;48.128;16.458;2022-11-15T08:22:01;56.25;;;19.63;;
73729;SDS011;62036;48.128;16.458;2022-11-15T08:24:27;52.17;;;19.63;;
73729;SDS011;62036;48.128;16.458;2022-11-15T08:26:53;50.25;;;18.98;;
73729;SDS011;62036;48.128;16.458;2022-11-15T08:29:19;56.83;;;20.75;;
73729;SDS011;62036;48.128;16.458;2022-11-15T08:31:45;48.42;;;17.85;;
73729;SDS011;62036;48.128;16.458;2022-11-15T08:34:11;52.95;;;20.20;;
73729;SDS011;62036;48.128;16.458;2022-11-15T08:36:37;54.78;;;19.65;;
73729;SDS011;62036;48.128;16.458;2022-11-15T08:39:03;44.33;;;18.40;;
73729;SDS011;62036;48.128;16.458;2022-11-15T08:41:31;51.65;;;19.15;;
73729;SDS011;62036;48.128;16.458;2022-11-15T08:43:58;56.88;;;19.52;;
73729;SDS011;62036;48.128;16.458;2022-11-15T08:46:25;63.67;;;19.45;;
73729;SDS011;62036;48.128;16.458;2022-11-15T08:48:51;56.30;;;19.35;;
73729;SDS011;62036;48.128;16.458;2022-11-15T08:51:17;52.20;;;19.17;;
73729;SDS011;62036;48.128;16.458;2022-11-15T08:53:43;57.65;;;19.35;;
73729;SDS011;62036;48.128;16.458;2022-11-15T08:56:09;51.42;;;19.05;;
73729;SDS011;62036;48.128;16.458;2022-11-15T08:58:36;61.65;;;19.58;;
73729;SDS011;62036;48.128;16.458;2022-11-15T09:01:02;56.10;;;19.35;;
73729;SDS011;62036;48.128;16.458;2022-11-15T09:03:28;53.33;;;19.48;;
73729;SDS011;62036;48.128;16.458;2022-11-15T09:05:58;53.72;;;19.33;;
73729;SDS011;62036;48.128;16.458;2022-11-15T09:08:25;57.22;;;19.00;;
73729;SDS011;62036;48.128;16.458;2022-11-15T09:10:51;58.35;;;19.52;;
73729;SDS011;62036;48.128;16.458;2022-11-15T09:13:17;59.08;;;19.77;;
73729;SDS011;62036;48.128;16.458;2022-11-15T09:15:43;59.67;;;19.40;;
73729;SDS011;62036;48.128;16.458;2022-11-15T09:18:09;68.95;;;21.20;;
73729;SDS011;62036;48.128;16.458;2022-11-15T09:20:35;63.55;;;21.23;;
73729;SDS011;62036;48.128;16.458;2022-11-15T09:23:01;62.65;;;21.02;;
73729;SDS011;62036;48.128;16.458;2022-11-15T09:25:28;60.13;;;19.67;;
73729;SDS011;62036;48.128;16.458;2022-11-15T09:27:54;68.88;;;21.77;;
73729;SDS011;62036;48.128;16.458;2022-11-15T09:30:20;67.15;;;21.88;;
73729;SDS011;62036;48.128;16.458;2022-11-15T09:32:47;65.65;;;21.42;;
73729;SDS011;62036;48.128;16.458;2022-11-15T09:35:13;66.38;;;20.50;;
73729;SDS011;62036;48.128;16.458;2022-11-15T09:37:39;58.40;;;20.10;;
73729;SDS011;62036;48.128;16.458;2022-11-15T09:40:06;64.72;;;20.98;;
73729;SDS011;62036;48.128;16.458;2022-11-15T09:45:23;66.13;;;20.00;;
73729;SDS011;62036;48.128;16.458;2022-11-15T09:53:02;68.70;;;21.88;;
73729;SDS011;62036;48.128;16.458;2022-11-15T09:55:35;64.00;;;22.67;;
73729;SDS011;62036;48.128;16.458;2022-11-15T09:58:05;74.15;;;21.10;;
73729;SDS011;62036;48.128;16.458;2022-11-15T10:00:38;63.92;;;19.77;;
73729;SDS011;62036;48.128;16.458;2022-11-15T10:05:46;64.05;;;20.08;;
73729;SDS011;62036;48.128;16.458;2022-11-15T10:08:20;67.55;;;22.88;;
73729;SDS011;62036;48.128;16.458;2022-11-15T10:10:49;72.90;;;21.25;;
73729;SDS011;62036;48.128;16.458;2022-11-15T10:13:22;70.88;;;21.80;;
73729;SDS011;62036;48.128;16.458;2022-11-15T10:15:49;70.57;;;20.63;;
73729;SDS011;62036;48.128;16.458;2022-11-15T10:18:17;63.55;;;21.30;;
73729;SDS011;62036;48.128;16.458;2022-11-15T10:20:49;75.80;;;21.70;;
73729;SDS011;62036;48.128;16.458;2022-11-15T10:23:17;63.83;;;21.48;;
73729;SDS011;62036;48.128;16.458;2022-11-15T10:25:44;62.55;;;20.60;;
73729;SDS011;62036;48.128;16.458;2022-11-15T10:30:43;67.97;;;22.73;;
73729;SDS011;62036;48.128;16.458;2022-11-15T10:33:11;68.68;;;21.70;;
73729;SDS011;62036;48.128;16.458;2022-11-15T10:35:37;62.92;;;19.05;;
73729;SDS011;62036;48.128;16.458;2022-11-15T10:38:04;70.78;;;20.13;;
73729;SDS011;62036;48.128;16.458;2022-11-15T10:40:31;76.75;;;24.00;;
73729;SDS011;62036;48.128;16.458;2022-11-15T10:43:04;72.78;;;21.02;;
73729;SDS011;62036;48.128;16.458;2022-11-15T10:45:31;65.40;;;23.77;;
73729;SDS011;62036;48.128;16.458;2022-11-15T10:50:45;67.38;;;22.88;;
73729;SDS011;62036;48.128;16.458;2022-11-15T10:53:22;66.55;;;21.02;;
73729;SDS011;62036;48.128;16.458;2022-11-15T10:55:50;64.55;;;18.58;;
73729;SDS011;62036;48.128;16.458;2022-11-15T11:00:46;62.50;;;20.52;;
73729;SDS011;62036;48.128;16.458;2022-11-15T11:05:47;65.80;;;20.02;;
73729;SDS011;62036;48.128;16.458;2022-11-15T11:10:39;70.90;;;20.75;;
73729;SDS011;62036;48.128;16.458;2022-11-15T11:13:24;71.13;;;22.38;;
73729;SDS011;62036;48.128;16.458;2022-11-15T11:16:05;62.90;;;19.35;;
73729;SDS011;62036;48.128;16.458;2022-11-15T11:18:38;73.15;;;20.65;;
73729;SDS011;62036;48.128;16.458;2022-11-15T11:21:10;66.25;;;19.92;;
73729;SDS011;62036;48.128;16.458;2022-11-15T11:23:42;56.13;;;19.85;;
73729;SDS011;62036;48.128;16.458;2022-11-15T11:28:59;47.53;;;17.05;;
73729;SDS011;62036;48.128;16.458;2022-11-15T11:31:34;56.03;;;18.75;;
73729;SDS011;62036;48.128;16.458;2022-11-15T11:36:51;55.33;;;18.90;;
73729;SDS011;62036;48.128;16.458;2022-11-15T11:41:53;54.17;;;18.67;;
73729;SDS011;62036;48.128;16.458;2022-11-15T11:44:32;61.60;;;20.40;;
73729;SDS011;62036;48.128;16.458;2022-11-15T11:46:59;55.25;;;20.13;;
73729;SDS011;62036;48.128;16.458;2022-11-15T11:52:12;59.95;;;19.00;;
73729;SDS011;62036;48.128;16.458;2022-11-15T11:57:20;53.17;;;18.10;;
73729;SDS011;62036;48.128;16.458;2022-11-15T11:59:50;54.25;;;19.05;;
73729;SDS011;62036;48.128;16.458;2022-11-15T12:02:29;57.72;;;20.20;;
73729;SDS011;62036;48.128;16.458;2022-11-15T12:05:08;48.83;;;19.05;;
73729;SDS011;62036;48.128;16.458;2022-11-15T12:07:35;51.63;;;18.77;;
73729;SDS011;62036;48.128;16.458;2022-11-15T12:10:11;51.55;;;19.08;;
73729;SDS011;62036;48.128;16.458;2022-11-15T12:17:36;45.15;;;18.45;;
73729;SDS011;62036;48.128;16.458;2022-11-15T12:20:04;51.05;;;18.63;;
73729;SDS011;62036;48.128;16.458;2022-11-15T12:22:41;52.50;;;22.92;;
73729;SDS011;62036;48.128;16.458;2022-11-15T12:25:14;53.42;;;22.33;;
73729;SDS011;62036;48.128;16.458;2022-11-15T12:27:44;44.13;;;17.70;;
73729;SDS011;62036;48.128;16.458;2022-11-15T12:30:12;43.30;;;17.35;;
73729;SDS011;62036;48.128;16.458;2022-11-15T12:32:39;46.83;;;18.45;;
73729;SDS011;62036;48.128;16.458;2022-11-15T12:35:06;45.40;;;18.75;;
73729;SDS011;62036;48.128;16.458;2022-11-15T12:37:55;41.97;;;17.30;;
73729;SDS011;62036;48.128;16.458;2022-11-15T12:45:36;41.92;;;18.25;;
73729;SDS011;62036;48.128;16.458;2022-11-15T12:53:29;46.85;;;18.95;;
73729;SDS011;62036;48.128;16.458;2022-11-15T13:01:59;44.22;;;17.67;;
73729;SDS011;62036;48.128;16.458;2022-11-15T13:06:44;50.17;;;20.70;;
73729;SDS011;62036;48.128;16.458;2022-11-15T13:12:03;84.28;;;32.10;;
73729;SDS011;62036;48.128;16.458;2022-11-15T13:17:16;116.28;;;42.42;;
73729;SDS011;62036;48.128;16.458;2022-11-15T13:19:43;160.40;;;59.20;;
73729;SDS011;62036;48.128;16.458;2022-11-15T13:22:09;97.40;;;38.20;;
73729;SDS011;62036;48.128;16.458;2022-11-15T13:24:54;170.25;;;59.50;;
73729;SDS011;62036;48.128;16.458;2022-11-15T13:27:20;113.72;;;43.10;;
73729;SDS011;62036;48.128;16.458;2022-11-15T13:29:46;167.98;;;58.22;;
73729;SDS011;62036;48.128;16.458;2022-11-15T13:32:13;167.68;;;53.90;;
73729;SDS011;62036;48.128;16.458;2022-11-15T13:34:42;201.57;;;66.97;;
73729;SDS011;62036;48.128;16.458;2022-11-15T13:39:46;119.45;;;42.78;;
73729;SDS011;62036;48.128;16.458;2022-11-15T13:42:19;147.50;;;53.55;;
73729;SDS011;62036;48.128;16.458;2022-11-15T13:44:55;167.38;;;57.83;;
73729;SDS011;62036;48.128;16.458;2022-11-15T13:47:22;142.98;;;51.08;;
73729;SDS011;62036;48.128;16.458;2022-11-15T13:49:51;121.75;;;47.63;;
73729;SDS011;62036;48.128;16.458;2022-11-15T13:52:17;136.45;;;48.50;;
73729;SDS011;62036;48.128;16.458;2022-11-15T13:57:20;101.20;;;41.67;;
73729;SDS011;62036;48.128;16.458;2022-11-15T13:59:54;130.10;;;51.35;;
73729;SDS011;62036;48.128;16.458;2022-11-15T14:02:21;88.68;;;41.50;;
73729;SDS011;62036;48.128;16.458;2022-11-15T14:04:51;81.57;;;44.58;;
73729;SDS011;62036;48.128;16.458;2022-11-15T14:07:20;58.42;;;29.08;;
73729;SDS011;62036;48.128;16.458;2022-11-15T14:09:46;51.90;;;22.55;;
73729;SDS011;62036;48.128;16.458;2022-11-15T14:14:51;53.20;;;24.15;;
73729;SDS011;62036;48.128;16.458;2022-11-15T14:17:34;61.53;;;29.38;;
73729;SDS011;62036;48.128;16.458;2022-11-15T14:20:00;54.92;;;23.90;;
73729;SDS011;62036;48.128;16.458;2022-11-15T14:22:28;52.45;;;22.85;;
73729;SDS011;62036;48.128;16.458;2022-11-15T14:27:35;58.45;;;23.65;;
73729;SDS011;62036;48.128;16.458;2022-11-15T14:30:01;51.97;;;22.55;;
73729;SDS011;62036;48.128;16.458;2022-11-15T14:32:28;54.50;;;22.65;;
73729;SDS011;62036;48.128;16.458;2022-11-15T14:34:58;52.88;;;22.90;;
73729;SDS011;62036;48.128;16.458;2022-11-15T14:37:25;54.92;;;23.85;;
73729;SDS011;62036;48.128;16.458;2022-11-15T14:39:52;59.33;;;22.83;;
73729;SDS011;62036;48.128;16.458;2022-11-15T14:42:18;55.28;;;25.20;;
73729;SDS011;62036;48.128;16.458;2022-11-15T14:44:45;58.92;;;24.67;;
73729;SDS011;62036;48.128;16.458;2022-11-15T14:47:11;54.45;;;23.73;;
73729;SDS011;62036;48.128;16.458;2022-11-15T14:49:37;49.95;;;22.73;;
73729;SDS011;62036;48.128;16.458;2022-11-15T14:52:07;52.42;;;22.48;;
73729;SDS011;62036;48.128;16.458;2022-11-15T14:54:33;56.00;;;22.98;;
73729;SDS011;62036;48.128;16.458;2022-11-15T14:56:59;44.28;;;20.05;;
73729;SDS011;62036;48.128;16.458;2022-11-15T14:59:25;46.80;;;20.35;;
73729;SDS011;62036;48.128;16.458;2022-11-15T15:01:51;47.78;;;21.20;;
73729;SDS011;62036;48.128;16.458;2022-11-15T15:04:17;49.40;;;21.35;;
73729;SDS011;62036;48.128;16.458;2022-11-15T15:06:43;51.55;;;21.38;;
73729;SDS011;62036;48.128;16.458;2022-11-15T15:09:09;51.33;;;21.58;;
73729;SDS011;62036;48.128;16.458;2022-11-15T15:11:35;52.10;;;21.80;;
73729;SDS011;62036;48.128;16.458;2022-11-15T15:14:01;44.53;;;19.90;;
73729;SDS011;62036;48.128;16.458;2022-11-15T15:16:28;50.17;;;20.42;;
73729;SDS011;62036;48.128;16.458;2022-11-15T15:18:54;47.97;;;19.80;;
73729;SDS011;62036;48.128;16.458;2022-11-15T15:23:46;50.33;;;22.50;;
73729;SDS011;62036;48.128;16.458;2022-11-15T15:26:12;49.83;;;22.27;;
73729;SDS011;62036;48.128;16.458;2022-11-15T15:28:38;46.90;;;19.88;;
73729;SDS011;62036;48.128;16.458;2022-11-15T15:31:04;46.90;;;20.08;;
73729;SDS011;62036;48.128;16.458;2022-11-15T15:33:30;50.28;;;21.60;;
73729;SDS011;62036;48.128;16.458;2022-11-15T15:35:57;50.58;;;20.67;;
73729;SDS011;62036;48.128;16.458;2022-11-15T15:38:23;47.28;;;18.80;;
73729;SDS011;62036;48.128;16.458;2022-11-15T15:40:49;46.50;;;19.75;;
73729;SDS011;62036;48.128;16.458;2022-11-15T15:43:15;47.33;;;19.05;;
73729;SDS011;62036;48.128;16.458;2022-11-15T15:45:41;42.85;;;18.65;;
73729;SDS011;62036;48.128;16.458;2022-11-15T15:48:13;42.90;;;19.20;;
73729;SDS011;62036;48.128;16.458;2022-11-15T15:50:43;41.42;;;17.67;;
73729;SDS011;62036;48.128;16.458;2022-11-15T15:53:10;43.00;;;17.50;;
73729;SDS011;62036;48.128;16.458;2022-11-15T15:55:36;45.28;;;18.25;;
73729;SDS011;62036;48.128;16.458;2022-11-15T15:58:03;45.67;;;18.80;;
73729;SDS011;62036;48.128;16.458;2022-11-15T16:00:29;45.38;;;18.83;;